Time;durP1;ratioP1;P1;durP2;ratioP2;P2;SDS_P1;SDS_P2;PMS_P1;PMS_P2;Temp;Humidity;BMP_temperature;BMP_pressure;BME280_temperature;BME280_humidity;BME280_pressure;Samples;Min_cycle;Max_cycle;Signal;HPM_P1;HPM_P2
2024/01/03 00:01:21;;;;;;;16.35;2.83;;;11.60;99.90;;;;;;6142473;23;20005;-36
2024/01/03 00:03:52;;;;;;;15.20;3.20;;;11.70;99.90;;;;;;6142807;23;20025;-36
2024/01/03 00:06:17;;;;;;;9.73;2.55;;;11.70;99.90;;;;;;6140362;23;20540;-36
2024/01/03 00:08:43;;;;;;;11.80;3.35;;;11.70;99.90;;;;;;6142565;23;20101;-36
2024/01/03 00:11:18;;;;;;;15.45;2.90;;;11.70;99.90;;;;;;6142022;23;20337;-35
2024/01/03 00:14:05;;;;;;;16.50;3.17;;;11.70;99.90;;;;;;6141975;23;20044;-36
2024/01/03 00:16:32;;;;;;;14.25;3.25;;;11.70;99.90;;;;;;6142309;23;20020;-36
2024/01/03 00:18:59;;;;;;;10.88;2.22;;;11.70;99.90;;;;;;6142089;23;20836;-36
2024/01/03 00:21:27;;;;;;;16.50;2.45;;;11.70;99.90;;;;;;6140719;23;20088;-37
2024/01/03 00:23:58;;;;;;;11.40;3.13;;;11.80;99.90;;;;;;6143171;23;20005;-36
2024/01/03 00:26:25;;;;;;;16.98;3.35;;;11.80;99.90;;;;;;6141716;23;20005;-37
2024/01/03 00:28:54;;;;;;;13.77;3.00;;;11.80;99.90;;;;;;6142707;23;20022;-36
2024/01/03 00:31:41;;;;;;;11.23;2.70;;;11.80;99.90;;;;;;6141451;23;20005;-36
2024/01/03 00:34:17;;;;;;;10.57;2.67;;;11.80;99.90;;;;;;6141433;23;20010;-35
2024/01/03 00:36:43;;;;;;;10.52;2.08;;;11.90;99.90;;;;;;6142469;23;20013;-36
2024/01/03 00:39:10;;;;;;;18.98;3.67;;;11.90;99.90;;;;;;6141389;23;20009;-36
2024/01/03 00:41:36;;;;;;;14.05;2.92;;;11.90;99.90;;;;;;6142148;23;20080;-36
2024/01/03 00:44:01;;;;;;;12.70;3.47;;;11.90;99.90;;;;;;6141763;23;20031;-36
2024/01/03 00:46:27;;;;;;;11.60;2.97;;;11.90;99.90;;;;;;6142206;23;20018;-35
2024/01/03 00:48:52;;;;;;;11.30;2.75;;;11.90;99.90;;;;;;6142085;23;20529;-36
2024/01/03 00:51:18;;;;;;;11.00;2.80;;;11.90;99.90;;;;;;6141592;23;20017;-36
2024/01/03 00:53:44;;;;;;;11.65;2.80;;;11.90;99.90;;;;;;6142711;23;20063;-36
2024/01/03 00:56:09;;;;;;;16.23;2.85;;;11.90;99.90;;;;;;6141534;23;20011;-36
2024/01/03 00:58:35;;;;;;;13.77;3.20;;;11.90;99.90;;;;;;6141991;23;20063;-34
2024/01/03 01:01:01;;;;;;;17.05;3.10;;;11.90;99.90;;;;;;6142357;23;20001;-35
2024/01/03 01:03:27;;;;;;;15.55;3.17;;;11.90;99.90;;;;;;6141538;23;20021;-35
2024/01/03 01:05:53;;;;;;;11.13;2.35;;;11.90;99.90;;;;;;6142065;23;20025;-35
2024/01/03 01:08:18;;;;;;;17.58;3.85;;;11.90;99.90;;;;;;6140194;23;20035;-35
2024/01/03 01:10:44;;;;;;;11.57;2.97;;;11.90;99.90;;;;;;6139404;23;20343;-36
2024/01/03 01:13:19;;;;;;;12.05;2.70;;;11.90;99.90;;;;;;6139932;23;20483;-37
2024/01/03 01:15:45;;;;;;;13.43;2.50;;;11.90;99.90;;;;;;6140749;23;20013;-37
2024/01/03 01:18:10;;;;;;;11.45;2.80;;;11.90;99.90;;;;;;6140004;23;20016;-35
2024/01/03 01:20:36;;;;;;;12.13;2.47;;;11.80;99.90;;;;;;6139890;23;20508;-36
2024/01/03 01:23:02;;;;;;;15.45;3.38;;;11.90;99.90;;;;;;6139904;23;20669;-36
2024/01/03 01:25:27;;;;;;;13.20;2.83;;;11.80;99.90;;;;;;6139824;23;20001;-36
2024/01/03 01:27:53;;;;;;;17.60;3.30;;;11.90;99.90;;;;;;6140814;23;20013;-36
2024/01/03 01:30:18;;;;;;;19.02;4.35;;;11.80;99.90;;;;;;6138565;23;20016;-36
2024/01/03 01:32:44;;;;;;;19.60;4.15;;;11.90;99.90;;;;;;6140235;23;20023;-37
2024/01/03 01:35:13;;;;;;;16.77;3.28;;;11.90;99.90;;;;;;6140096;23;20005;-37
2024/01/03 01:37:38;;;;;;;15.60;4.95;;;11.90;99.90;;;;;;6139877;23;20006;-36
2024/01/03 01:40:04;;;;;;;11.82;3.55;;;11.90;99.90;;;;;;6140437;23;20013;-37
2024/01/03 01:42:31;;;;;;;18.00;3.90;;;11.80;99.90;;;;;;6141040;23;20604;-37
2024/01/03 01:44:57;;;;;;;16.67;3.33;;;11.80;99.90;;;;;;6140071;23;20021;-37
2024/01/03 01:47:24;;;;;;;16.75;3.60;;;11.90;99.90;;;;;;6140284;23;20017;-36
2024/01/03 01:49:50;;;;;;;18.20;3.80;;;11.80;99.90;;;;;;6140285;23;20012;-36
2024/01/03 01:52:17;;;;;;;19.95;3.78;;;11.90;99.90;;;;;;6138643;23;20445;-37
2024/01/03 01:54:42;;;;;;;14.50;4.38;;;11.90;99.90;;;;;;6140428;23;20005;-36
2024/01/03 01:57:10;;;;;;;20.95;4.07;;;11.90;99.90;;;;;;6139182;23;20424;-36
2024/01/03 01:59:36;;;;;;;19.15;4.07;;;11.90;99.90;;;;;;6139319;23;20511;-36
2024/01/03 02:02:04;;;;;;;16.42;3.20;;;11.90;99.90;;;;;;6139123;23;20041;-36
2024/01/03 02:04:33;;;;;;;15.13;3.47;;;11.90;99.90;;;;;;6140684;23;20010;-36
2024/01/03 02:06:59;;;;;;;17.13;3.90;;;11.90;99.90;;;;;;6138670;23;20013;-36
2024/01/03 02:09:24;;;;;;;19.20;3.75;;;11.90;99.90;;;;;;6139441;23;20016;-36
2024/01/03 02:11:50;;;;;;;16.55;3.65;;;11.90;99.90;;;;;;6140126;23;20520;-36
2024/01/03 02:14:15;;;;;;;15.68;3.47;;;11.90;99.90;;;;;;6138841;23;20365;-35
2024/01/03 02:16:41;;;;;;;17.00;3.47;;;11.90;99.90;;;;;;6139828;23;20508;-35
2024/01/03 02:19:07;;;;;;;17.35;4.18;;;11.90;99.90;;;;;;6138691;23;20077;-34
2024/01/03 02:21:32;;;;;;;16.25;3.75;;;11.90;99.90;;;;;;6139102;23;20009;-43
2024/01/03 02:23:58;;;;;;;19.95;3.92;;;11.90;99.90;;;;;;6139586;23;20044;-37
2024/01/03 02:26:23;;;;;;;14.57;3.25;;;11.90;99.90;;;;;;6140486;23;20017;-38
2024/01/03 02:28:49;;;;;;;14.98;3.15;;;11.90;99.90;;;;;;6140864;23;20012;-35
2024/01/03 02:31:14;;;;;;;17.15;3.65;;;11.90;99.90;;;;;;6139420;23;20080;-36
2024/01/03 02:33:40;;;;;;;15.60;4.10;;;11.90;99.90;;;;;;6139871;23;20732;-37
2024/01/03 02:36:06;;;;;;;14.95;3.25;;;11.90;99.90;;;;;;6139569;23;20788;-36
2024/01/03 02:38:32;;;;;;;14.98;3.67;;;11.90;99.90;;;;;;6140164;23;20005;-37
2024/01/03 02:40:57;;;;;;;15.43;2.95;;;11.90;99.90;;;;;;6135252;23;20344;-37
2024/01/03 02:43:23;;;;;;;18.67;4.15;;;11.90;99.90;;;;;;6139811;23;20013;-36
2024/01/03 02:45:49;;;;;;;11.48;3.28;;;11.90;99.90;;;;;;6139189;23;20652;-36
2024/01/03 02:48:14;;;;;;;18.73;3.22;;;11.90;99.90;;;;;;6138163;23;20076;-36
2024/01/03 02:50:44;;;;;;;15.32;3.40;;;11.90;99.90;;;;;;6140665;23;20368;-35
2024/01/03 02:53:10;;;;;;;14.63;3.25;;;11.90;99.90;;;;;;6140008;23;20009;-35
2024/01/03 02:55:36;;;;;;;16.02;3.65;;;11.90;99.90;;;;;;6140000;23;20093;-35
2024/01/03 02:58:02;;;;;;;14.73;3.78;;;11.90;99.90;;;;;;6139823;23;20084;-35
2024/01/03 03:00:27;;;;;;;19.23;4.72;;;11.90;99.90;;;;;;6138675;23;20081;-35
2024/01/03 03:02:53;;;;;;;21.88;4.30;;;11.90;99.90;;;;;;6138513;23;20021;-35
2024/01/03 03:05:21;;;;;;;17.75;3.65;;;11.90;99.90;;;;;;6139054;23;20788;-36
2024/01/03 03:07:53;;;;;;;16.75;4.05;;;11.90;99.90;;;;;;6140274;23;20024;-35
2024/01/03 03:10:19;;;;;;;16.37;3.97;;;11.80;99.90;;;;;;6137310;23;20419;-35
2024/01/03 03:12:44;;;;;;;21.98;4.20;;;11.90;99.90;;;;;;6139170;23;20701;-35
2024/01/03 03:15:10;;;;;;;14.48;3.70;;;11.90;99.90;;;;;;6137513;23;20113;-35
2024/01/03 03:17:35;;;;;;;23.02;3.92;;;11.80;99.90;;;;;;6139681;23;20358;-35
2024/01/03 03:20:01;;;;;;;14.88;3.00;;;11.80;99.90;;;;;;6140296;23;20477;-34
2024/01/03 03:22:26;;;;;;;16.75;4.07;;;11.80;99.90;;;;;;6138076;23;20064;-35
2024/01/03 03:24:52;;;;;;;17.73;3.83;;;11.80;99.90;;;;;;6139395;23;20005;-37
2024/01/03 03:27:18;;;;;;;17.50;4.45;;;11.80;99.90;;;;;;6138070;23;20431;-38
2024/01/03 03:29:43;;;;;;;19.02;3.60;;;11.80;99.90;;;;;;6139263;23;19998;-36
2024/01/03 03:32:10;;;;;;;17.27;3.78;;;11.80;99.90;;;;;;6138516;23;20558;-37
2024/01/03 03:34:36;;;;;;;17.65;3.40;;;11.80;99.90;;;;;;6138794;23;20635;-35
2024/01/03 03:37:01;;;;;;;20.77;3.72;;;11.80;99.90;;;;;;6138499;23;20013;-36
2024/01/03 03:39:27;;;;;;;18.60;4.00;;;11.80;99.90;;;;;;6139434;23;20076;-37
2024/01/03 03:41:52;;;;;;;20.45;4.72;;;11.70;99.90;;;;;;6140030;23;20332;-36
2024/01/03 03:44:18;;;;;;;18.83;4.45;;;11.70;99.90;;;;;;6137064;23;20075;-36
2024/01/03 03:46:50;;;;;;;17.27;3.30;;;11.80;99.90;;;;;;6138440;23;20514;-37
2024/01/03 03:49:15;;;;;;;24.30;3.95;;;11.80;99.90;;;;;;6139171;23;20016;-37
2024/01/03 03:51:41;;;;;;;19.33;3.80;;;11.70;99.90;;;;;;6138104;23;20013;-36
2024/01/03 03:54:06;;;;;;;13.45;3.33;;;11.80;99.90;;;;;;6138540;23;20080;-36
2024/01/03 03:56:32;;;;;;;20.08;3.78;;;11.70;99.90;;;;;;6139046;23;20329;-37
2024/01/03 03:58:58;;;;;;;23.38;4.13;;;11.80;99.90;;;;;;6137606;23;20005;-36
2024/01/03 04:01:23;;;;;;;17.02;3.70;;;11.80;99.90;;;;;;6138562;23;20866;-36
2024/01/03 04:03:49;;;;;;;25.35;4.43;;;11.70;99.90;;;;;;6138701;23;20032;-36
2024/01/03 04:06:15;;;;;;;27.25;4.20;;;11.70;99.90;;;;;;6138361;23;20759;-36
2024/01/03 04:08:44;;;;;;;17.98;4.07;;;11.70;99.90;;;;;;6139904;23;20012;-37
2024/01/03 04:11:10;;;;;;;21.63;3.78;;;11.60;99.90;;;;;;6138639;23;20037;-36
2024/01/03 04:13:38;;;;;;;18.42;3.85;;;11.70;99.90;;;;;;6138192;23;20040;-37
2024/01/03 04:16:10;;;;;;;16.92;3.97;;;11.70;99.90;;;;;;6139058;23;20005;-38
2024/01/03 04:18:35;;;;;;;21.17;4.03;;;11.60;99.90;;;;;;6138902;23;20096;-36
2024/01/03 04:21:05;;;;;;;21.15;3.97;;;11.60;99.90;;;;;;6138679;23;20089;-36
2024/01/03 04:23:34;;;;;;;19.70;4.25;;;11.60;99.90;;;;;;6138307;23;20194;-35
2024/01/03 04:26:00;;;;;;;23.42;4.47;;;11.50;99.90;;;;;;6138558;23;20064;-36
2024/01/03 04:28:25;;;;;;;18.02;4.30;;;11.50;99.90;;;;;;6138485;23;20021;-36
2024/01/03 04:30:51;;;;;;;22.05;4.47;;;11.60;99.90;;;;;;6139336;23;20113;-36
2024/01/03 04:33:16;;;;;;;22.52;5.13;;;11.60;99.90;;;;;;6137502;23;20012;-43
2024/01/03 04:35:45;;;;;;;21.55;4.57;;;11.60;99.90;;;;;;6138819;23;20002;-37
2024/01/03 04:38:14;;;;;;;19.45;3.80;;;11.60;99.90;;;;;;6137588;23;20005;-37
2024/01/03 04:40:40;;;;;;;16.38;3.90;;;11.60;99.90;;;;;;6137911;23;20056;-36
2024/01/03 04:43:05;;;;;;;18.65;3.92;;;11.70;99.90;;;;;;6138591;23;20372;-36
2024/01/03 04:45:31;;;;;;;15.02;3.35;;;11.60;99.90;;;;;;6140120;23;20002;-37
2024/01/03 04:47:56;;;;;;;17.13;3.47;;;11.70;99.90;;;;;;6139929;23;20018;-36
2024/01/03 04:50:22;;;;;;;18.10;4.30;;;11.70;99.90;;;;;;6140083;23;20329;-37
2024/01/03 04:52:48;;;;;;;20.30;4.35;;;11.70;99.90;;;;;;6141794;23;20010;-41
2024/01/03 04:55:13;;;;;;;19.55;3.88;;;11.70;99.90;;;;;;6139649;23;20042;-37
2024/01/03 04:57:39;;;;;;;17.15;3.38;;;11.70;99.90;;;;;;6140872;23;20005;-37
2024/01/03 05:00:08;;;;;;;13.40;3.88;;;11.70;99.90;;;;;;6139998;23;20482;-37
2024/01/03 05:02:35;;;;;;;16.98;3.70;;;11.70;99.90;;;;;;6140668;23;20124;-36
2024/01/03 05:05:01;;;;;;;19.67;4.50;;;11.70;99.90;;;;;;6140716;23;20017;-36
2024/01/03 05:07:27;;;;;;;16.05;3.50;;;11.70;99.90;;;;;;6140557;23;20377;-37
2024/01/03 05:09:52;;;;;;;16.25;3.47;;;11.70;99.90;;;;;;6141546;23;19998;-37
2024/01/03 05:12:18;;;;;;;17.55;3.58;;;11.70;99.90;;;;;;6139728;23;20005;-37
2024/01/03 05:14:44;;;;;;;13.75;3.65;;;11.70;99.90;;;;;;6140610;23;20016;-37
2024/01/03 05:17:10;;;;;;;14.18;3.90;;;11.70;99.90;;;;;;6140961;23;20011;-37
2024/01/03 05:19:35;;;;;;;17.60;5.00;;;11.70;99.90;;;;;;6142439;23;20013;-36
2024/01/03 05:22:01;;;;;;;20.08;5.93;;;11.60;99.90;;;;;;6139950;23;20011;-37
2024/01/03 05:24:27;;;;;;;14.48;4.15;;;11.60;99.90;;;;;;6140024;23;20005;-37
2024/01/03 05:26:53;;;;;;;15.45;4.35;;;11.60;99.90;;;;;;6141264;23;20013;-37
2024/01/03 05:29:18;;;;;;;14.68;3.75;;;11.50;99.90;;;;;;6139749;23;20060;-37
2024/01/03 05:31:44;;;;;;;11.88;3.85;;;11.50;99.90;;;;;;6141043;23;20009;-37
2024/01/03 05:34:10;;;;;;;11.82;4.20;;;11.50;99.90;;;;;;6140919;23;20002;-37
2024/01/03 05:36:39;;;;;;;12.15;3.30;;;11.40;99.90;;;;;;6140139;23;20560;-37
2024/01/03 05:39:05;;;;;;;12.98;3.58;;;11.50;99.90;;;;;;6141964;23;20492;-37
2024/01/03 05:41:31;;;;;;;15.05;3.88;;;11.50;99.90;;;;;;6141442;23;20096;-36
2024/01/03 05:43:56;;;;;;;14.15;4.05;;;11.40;99.90;;;;;;6140975;23;20690;-36
2024/01/03 05:46:22;;;;;;;14.40;3.00;;;11.40;99.90;;;;;;6141307;23;20013;-37
2024/01/03 05:49:05;;;;;;;16.67;4.28;;;11.40;99.90;;;;;;6139913;23;20060;-36
2024/01/03 05:51:31;;;;;;;13.00;3.40;;;11.30;99.90;;;;;;6139472;23;20009;-37
2024/01/03 05:53:57;;;;;;;12.50;3.13;;;11.30;99.90;;;;;;6140622;23;20060;-36
2024/01/03 05:56:25;;;;;;;12.18;3.00;;;11.20;99.90;;;;;;6140765;23;20111;-35
2024/01/03 05:58:53;;;;;;;8.88;2.40;;;11.20;99.90;;;;;;6140739;23;20106;-36
2024/01/03 06:01:19;;;;;;;13.23;2.88;;;11.20;99.90;;;;;;6140744;23;20056;-37
2024/01/03 06:03:47;;;;;;;10.27;2.58;;;11.20;99.90;;;;;;6139510;23;20021;-35
2024/01/03 06:06:14;;;;;;;11.23;2.33;;;11.20;99.90;;;;;;6138948;23;20041;-36
2024/01/03 06:08:40;;;;;;;8.32;2.42;;;11.10;99.90;;;;;;6140608;23;20019;-36
2024/01/03 06:11:12;;;;;;;8.45;1.92;;;11.10;99.90;;;;;;6140236;23;20010;-36
2024/01/03 06:13:42;;;;;;;11.73;2.42;;;11.10;99.90;;;;;;6140477;23;20006;-36
2024/01/03 06:16:12;;;;;;;10.52;3.42;;;11.10;99.90;;;;;;6139756;23;20017;-38
2024/01/03 06:18:38;;;;;;;11.93;2.38;;;11.10;99.90;;;;;;6140133;23;20710;-37
2024/01/03 06:21:04;;;;;;;5.22;2.00;;;11.10;99.90;;;;;;6141617;23;20005;-38
2024/01/03 06:23:29;;;;;;;6.05;1.75;;;11.20;99.90;;;;;;6139883;23;20683;-36
2024/01/03 06:26:01;;;;;;;6.68;2.17;;;11.20;99.90;;;;;;6140219;23;20728;-36
2024/01/03 06:28:39;;;;;;;7.32;2.00;;;11.20;99.90;;;;;;6140540;23;20091;-36
2024/01/03 06:31:06;;;;;;;8.60;1.92;;;11.20;99.90;;;;;;6140024;23;20001;-36
2024/01/03 06:33:34;;;;;;;5.07;1.58;;;11.20;99.90;;;;;;6138056;23;20006;-36
2024/01/03 06:36:00;;;;;;;6.63;1.80;;;11.20;99.90;;;;;;6138979;23;20006;-36
2024/01/03 06:38:25;;;;;;;6.82;1.85;;;11.20;99.90;;;;;;6139842;23;20017;-38
2024/01/03 06:40:51;;;;;;;5.55;1.77;;;11.20;99.90;;;;;;6139076;23;20499;-38
2024/01/03 06:43:26;;;;;;;5.05;1.50;;;11.20;99.90;;;;;;6136672;23;20104;-37
2024/01/03 06:45:52;;;;;;;5.13;1.30;;;11.20;99.90;;;;;;6138682;23;20056;-40
2024/01/03 06:48:18;;;;;;;6.50;2.05;;;11.20;99.90;;;;;;6136729;23;20728;-39
2024/01/03 06:50:44;;;;;;;7.25;2.03;;;11.20;99.90;;;;;;6139321;23;20001;-36
2024/01/03 06:53:09;;;;;;;5.63;1.83;;;11.20;99.90;;;;;;6138191;23;20006;-36
2024/01/03 06:55:35;;;;;;;6.97;2.10;;;11.20;99.90;;;;;;6138923;23;20354;-36
2024/01/03 06:58:00;;;;;;;5.45;1.58;;;11.20;99.90;;;;;;6139177;23;20033;-36
2024/01/03 07:00:26;;;;;;;4.88;1.40;;;11.20;99.90;;;;;;6137569;23;20037;-35
2024/01/03 07:02:52;;;;;;;6.85;1.40;;;11.20;99.90;;;;;;6139155;23;20083;-39
2024/01/03 07:05:17;;;;;;;4.63;0.93;;;11.20;99.90;;;;;;6139566;23;20006;-36
2024/01/03 07:07:43;;;;;;;3.13;0.85;;;11.20;99.90;;;;;;6138250;23;20099;-36
2024/01/03 07:10:09;;;;;;;5.53;1.27;;;11.20;99.90;;;;;;6138076;23;20009;-36
2024/01/03 07:12:35;;;;;;;3.75;0.90;;;11.20;99.90;;;;;;6137420;23;20010;-36
2024/01/03 07:15:01;;;;;;;2.83;0.70;;;11.20;99.90;;;;;;6138403;23;20005;-36
2024/01/03 07:17:26;;;;;;;4.05;0.80;;;11.10;99.90;;;;;;6139016;23;20033;-36
2024/01/03 07:19:52;;;;;;;3.20;1.00;;;11.10;99.90;;;;;;6138748;23;20588;-37
2024/01/03 07:22:18;;;;;;;4.10;1.05;;;11.10;99.90;;;;;;6136927;23;20484;-36
2024/01/03 07:24:43;;;;;;;1.73;0.70;;;11.00;99.90;;;;;;6139298;23;20001;-36
2024/01/03 07:27:09;;;;;;;3.13;0.70;;;11.00;99.90;;;;;;6139266;23;20020;-37
2024/01/03 07:29:34;;;;;;;2.47;0.70;;;10.90;99.90;;;;;;6138490;23;20620;-36
2024/01/03 07:32:00;;;;;;;2.42;0.60;;;10.90;99.90;;;;;;6139848;23;20005;-36
2024/01/03 07:34:26;;;;;;;2.78;0.70;;;10.80;99.90;;;;;;6139476;23;20001;-36
2024/01/03 07:36:52;;;;;;;1.65;0.57;;;10.70;99.90;;;;;;6139076;23;20422;-37
2024/01/03 07:39:18;;;;;;;2.40;0.60;;;10.70;99.90;;;;;;6139202;23;20001;-36
2024/01/03 07:41:43;;;;;;;1.63;0.63;;;10.60;99.90;;;;;;6139919;23;20465;-36
2024/01/03 07:44:09;;;;;;;1.88;0.85;;;10.60;99.90;;;;;;6138849;23;20056;-37
2024/01/03 07:46:34;;;;;;;2.75;0.95;;;10.60;99.90;;;;;;6138999;23;20014;-37
2024/01/03 07:49:00;;;;;;;1.40;0.57;;;10.60;99.90;;;;;;6139871;23;20010;-36
2024/01/03 07:51:26;;;;;;;2.08;0.85;;;10.50;99.90;;;;;;6139411;23;20135;-36
2024/01/03 07:53:51;;;;;;;2.95;0.70;;;10.50;99.90;;;;;;6140364;23;20013;-39
2024/01/03 07:56:17;;;;;;;0.68;0.50;;;10.50;99.90;;;;;;6139104;23;20702;-37
2024/01/03 07:58:43;;;;;;;2.20;0.40;;;10.50;99.90;;;;;;6138954;23;20455;-37
2024/01/03 08:01:09;;;;;;;1.70;0.50;;;10.50;99.90;;;;;;6138217;23;20005;-36
2024/01/03 08:03:35;;;;;;;2.63;0.50;;;10.40;99.90;;;;;;6138347;23;20017;-36
2024/01/03 08:06:01;;;;;;;2.30;0.60;;;10.40;99.90;;;;;;6138857;23;20010;-36
2024/01/03 08:08:26;;;;;;;3.47;0.85;;;10.40;99.90;;;;;;6138952;23;20009;-35
2024/01/03 08:10:52;;;;;;;3.88;0.70;;;10.40;99.90;;;;;;6138448;23;20056;-37
2024/01/03 08:13:18;;;;;;;1.42;0.43;;;10.40;99.90;;;;;;6138082;23;20032;-36
2024/01/03 08:15:43;;;;;;;2.60;0.65;;;10.40;99.90;;;;;;6139328;23;20006;-36
2024/01/03 08:18:09;;;;;;;2.33;0.50;;;10.40;99.90;;;;;;6138102;23;20006;-36
2024/01/03 08:20:35;;;;;;;2.17;0.57;;;10.40;99.90;;;;;;6140024;23;20005;-37
2024/01/03 08:23:00;;;;;;;4.35;0.73;;;10.40;99.90;;;;;;6114266;23;20005;-37
2024/01/03 08:25:26;;;;;;;1.77;0.55;;;10.40;99.90;;;;;;6141087;23;20009;-36
2024/01/03 08:27:51;;;;;;;4.55;1.20;;;10.40;99.90;;;;;;6142164;23;20022;-39
2024/01/03 08:30:17;;;;;;;3.72;1.25;;;10.40;99.90;;;;;;6139152;23;20082;-37
2024/01/03 08:32:44;;;;;;;3.60;0.80;;;10.40;99.90;;;;;;6140522;23;20010;-37
2024/01/03 08:35:10;;;;;;;1.92;0.70;;;10.50;99.90;;;;;;6140674;23;20449;-37
2024/01/03 08:37:35;;;;;;;2.92;0.68;;;10.40;99.90;;;;;;6140430;23;20015;-36
2024/01/03 08:40:02;;;;;;;2.60;0.82;;;10.50;99.90;;;;;;6140415;23;20104;-37
2024/01/03 08:42:28;;;;;;;2.53;1.08;;;10.50;99.90;;;;;;6141456;23;20010;-37
2024/01/03 08:44:54;;;;;;;3.83;1.00;;;10.50;99.90;;;;;;6141095;23;20075;-37
2024/01/03 08:47:22;;;;;;;7.70;1.50;;;10.50;99.90;;;;;;6139666;23;20072;-37
2024/01/03 08:49:48;;;;;;;3.60;1.48;;;10.50;99.90;;;;;;6140785;23;20056;-37
2024/01/03 08:52:14;;;;;;;5.20;1.80;;;10.50;99.90;;;;;;6139957;23;20006;-37
2024/01/03 08:54:46;;;;;;;4.32;1.65;;;10.50;99.90;;;;;;6140313;23;20093;-36
2024/01/03 08:57:11;;;;;;;4.67;1.97;;;10.50;99.90;;;;;;6135024;23;20005;-35
2024/01/03 08:59:37;;;;;;;3.65;1.38;;;10.50;99.90;;;;;;6140996;23;20308;-36
2024/01/03 09:02:03;;;;;;;3.13;1.63;;;10.50;99.90;;;;;;6139749;23;20734;-36
2024/01/03 09:04:41;;;;;;;5.07;1.75;;;10.50;99.90;;;;;;6139790;23;20087;-37
2024/01/03 09:07:07;;;;;;;2.45;1.33;;;10.50;99.90;;;;;;6140009;23;20120;-37
2024/01/03 09:09:33;;;;;;;4.60;1.67;;;10.50;99.90;;;;;;6140221;23;20093;-37
2024/01/03 09:11:58;;;;;;;4.03;1.60;;;10.50;99.90;;;;;;6139940;23;20444;-36
2024/01/03 09:14:24;;;;;;;3.90;1.65;;;10.50;99.90;;;;;;6139101;23;20009;-36
2024/01/03 09:16:51;;;;;;;4.68;1.40;;;10.50;99.90;;;;;;6141299;23;20093;-37
2024/01/03 09:19:16;;;;;;;4.88;1.52;;;10.60;99.90;;;;;;6139895;23;20009;-37
2024/01/03 09:21:46;;;;;;;3.28;1.70;;;10.60;99.90;;;;;;6140680;23;20428;-37
2024/01/03 09:24:11;;;;;;;5.35;1.67;;;10.60;99.90;;;;;;6140224;23;20432;-37
2024/01/03 09:26:37;;;;;;;6.38;2.40;;;10.60;99.90;;;;;;6140519;23;20001;-37
2024/01/03 09:29:02;;;;;;;6.70;2.05;;;10.70;99.90;;;;;;6140425;23;20013;-37
2024/01/03 09:31:30;;;;;;;5.38;2.20;;;10.70;99.90;;;;;;6140884;23;20005;-37
2024/01/03 09:33:59;;;;;;;5.75;1.90;;;10.70;99.90;;;;;;6141030;23;20009;-36
2024/01/03 09:36:25;;;;;;;3.70;1.60;;;10.70;99.90;;;;;;6139404;23;20009;-35
2024/01/03 09:38:51;;;;;;;6.55;1.85;;;10.70;99.90;;;;;;6140711;23;20009;-35
2024/01/03 09:41:17;;;;;;;7.15;2.30;;;10.60;99.90;;;;;;6139264;23;20913;-39
2024/01/03 09:43:43;;;;;;;6.10;1.90;;;10.60;99.90;;;;;;6140238;23;20012;-36
2024/01/03 09:46:12;;;;;;;8.23;2.05;;;10.60;99.90;;;;;;6139720;23;20400;-36
2024/01/03 09:48:44;;;;;;;7.75;1.85;;;10.60;99.90;;;;;;6141378;23;20307;-36
2024/01/03 09:51:13;;;;;;;6.72;1.42;;;10.60;99.90;;;;;;6140284;23;20021;-36
2024/01/03 09:53:40;;;;;;;5.75;1.85;;;10.70;99.90;;;;;;6140068;23;20005;-39
2024/01/03 09:56:08;;;;;;;5.90;1.70;;;10.70;99.90;;;;;;6138723;23;20590;-36
2024/01/03 09:58:35;;;;;;;6.00;1.60;;;10.70;99.90;;;;;;6140693;23;20010;-36
2024/01/03 10:01:02;;;;;;;6.47;1.63;;;10.70;99.90;;;;;;6140571;23;20001;-36
2024/01/03 10:03:28;;;;;;;7.00;1.50;;;10.70;99.90;;;;;;6138682;23;20017;-37
2024/01/03 10:06:13;;;;;;;9.13;2.05;;;10.70;99.90;;;;;;6139627;23;20036;-37
2024/01/03 10:08:55;;;;;;;10.23;2.17;;;10.70;99.90;;;;;;6140791;23;20056;-36
2024/01/03 10:11:23;;;;;;;11.75;2.13;;;10.70;99.90;;;;;;6138124;23;20005;-36
2024/01/03 10:13:53;;;;;;;11.38;2.55;;;10.60;99.90;;;;;;6139232;23;20110;-36
2024/01/03 10:16:26;;;;;;;14.77;2.47;;;10.70;99.90;;;;;;6139265;23;20001;-35
2024/01/03 10:19:11;;;;;;;14.48;2.92;;;10.70;99.90;;;;;;6139799;23;20052;-36
2024/01/03 10:21:54;;;;;;;13.48;3.25;;;10.70;99.90;;;;;;6140568;23;20270;-36
2024/01/03 10:24:23;;;;;;;11.10;2.75;;;10.70;99.90;;;;;;6139881;23;20006;-36
2024/01/03 10:26:49;;;;;;;10.15;2.58;;;10.70;99.90;;;;;;6139513;23;20011;-36
2024/01/03 10:29:17;;;;;;;11.63;2.70;;;10.70;99.90;;;;;;6139805;23;20017;-37
2024/01/03 10:31:52;;;;;;;12.52;2.53;;;10.70;99.90;;;;;;6138590;23;20009;-37
2024/01/03 10:34:24;;;;;;;18.13;2.70;;;10.80;99.90;;;;;;6139079;23;20005;-37
2024/01/03 10:36:52;;;;;;;14.10;2.60;;;10.80;99.90;;;;;;6139970;23;20005;-37
2024/01/03 10:39:19;;;;;;;9.55;2.45;;;10.80;99.90;;;;;;6139270;23;20425;-37
2024/01/03 10:41:49;;;;;;;9.77;2.63;;;10.90;99.90;;;;;;6138746;23;20009;-37
2024/01/03 10:44:17;;;;;;;16.10;4.05;;;10.90;99.90;;;;;;6139376;23;20013;-38
2024/01/03 10:46:47;;;;;;;16.65;3.50;;;11.00;99.90;;;;;;6139399;23;20005;-36
2024/01/03 10:49:15;;;;;;;16.73;3.13;;;11.20;99.90;;;;;;6140303;23;20016;-37
2024/01/03 10:51:43;;;;;;;13.38;3.20;;;11.20;99.90;;;;;;6141304;23;20028;-37
2024/01/03 10:54:13;;;;;;;13.35;3.30;;;11.30;99.90;;;;;;6139190;23;20524;-37
2024/01/03 10:56:52;;;;;;;11.93;3.03;;;11.30;99.90;;;;;;6114287;23;20009;-37
2024/01/03 10:59:19;;;;;;;14.00;2.95;;;11.40;99.90;;;;;;6139292;23;20025;-36
2024/01/03 11:02:17;;;;;;;13.93;3.47;;;11.40;99.90;;;;;;6140137;23;20009;-37
2024/01/03 11:05:07;;;;;;;11.70;3.17;;;11.40;99.90;;;;;;6168852;23;20028;-37
2024/01/03 11:07:48;;;;;;;16.30;3.72;;;11.40;99.90;;;;;;6168139;23;20024;-36
2024/01/03 11:10:52;;;;;;;21.98;4.18;;;11.40;99.90;;;;;;6168676;23;20008;-37
2024/01/03 11:13:39;;;;;;;13.98;3.38;;;11.40;99.90;;;;;;6168512;23;20487;-37
2024/01/03 11:16:05;;;;;;;14.70;3.40;;;11.30;99.90;;;;;;6169717;23;20007;-36
2024/01/03 11:18:40;;;;;;;11.15;2.95;;;11.30;99.90;;;;;;6169324;23;20012;-36
2024/01/03 11:21:21;;;;;;;14.65;3.33;;;11.30;99.90;;;;;;6168799;23;20017;-37
2024/01/03 11:23:47;;;;;;;17.73;4.30;;;11.30;99.90;;;;;;6169584;23;20065;-38
2024/01/03 11:26:13;;;;;;;15.18;3.60;;;11.30;99.90;;;;;;6168605;23;20248;-37
2024/01/03 11:28:38;;;;;;;18.17;3.35;;;11.40;99.90;;;;;;6169805;23;20079;-37
2024/01/03 11:31:06;;;;;;;15.32;3.13;;;11.50;99.90;;;;;;6168335;23;20417;-37
2024/01/03 11:33:38;;;;;;;12.63;3.03;;;11.50;99.90;;;;;;6168308;23;20017;-36
2024/01/03 11:36:05;;;;;;;17.23;3.83;;;11.60;99.90;;;;;;6168017;23;20031;-37
2024/01/03 11:38:41;;;;;;;22.10;3.92;;;11.50;99.90;;;;;;6170013;23;20037;-35
2024/01/03 11:41:15;;;;;;;16.20;4.20;;;11.50;99.90;;;;;;6169447;23;20479;-36
2024/01/03 11:43:41;;;;;;;15.13;3.10;;;11.50;99.90;;;;;;6169100;23;20040;-35
2024/01/03 11:46:11;;;;;;;12.40;3.47;;;11.50;99.90;;;;;;6168360;23;20033;-36
2024/01/03 11:48:38;;;;;;;15.00;2.80;;;11.50;99.90;;;;;;6167778;23;20059;-36
2024/01/03 11:51:24;;;;;;;19.50;3.70;;;11.50;99.90;;;;;;6168284;23;20012;-37
2024/01/03 11:53:53;;;;;;;18.63;4.38;;;11.60;99.90;;;;;;6167740;23;20013;-36
2024/01/03 11:56:29;;;;;;;16.77;3.40;;;11.60;99.90;;;;;;6167411;23;20059;-36
2024/01/03 11:58:57;;;;;;;16.45;4.90;;;11.60;99.90;;;;;;6167835;23;20079;-36
2024/01/03 12:01:23;;;;;;;20.65;4.50;;;11.60;99.90;;;;;;6166970;23;20016;-36
2024/01/03 12:03:49;;;;;;;17.67;3.80;;;11.60;99.90;;;;;;6147281;23;20125;-36
2024/01/03 12:06:19;;;;;;;22.70;3.72;;;11.60;99.90;;;;;;6138530;23;20005;-36
2024/01/03 12:08:45;;;;;;;16.60;4.40;;;11.70;99.90;;;;;;6139187;23;20048;-36
2024/01/03 12:11:11;;;;;;;20.02;3.90;;;11.70;99.90;;;;;;6136692;23;20377;-36
2024/01/03 12:13:37;;;;;;;14.40;3.22;;;11.70;99.90;;;;;;6139449;23;20076;-36
2024/01/03 12:16:02;;;;;;;13.75;3.72;;;11.70;99.90;;;;;;6137884;23;20385;-37
2024/01/03 12:18:28;;;;;;;14.63;3.08;;;11.80;99.90;;;;;;6137589;23;20628;-38
2024/01/03 12:20:54;;;;;;;17.17;4.10;;;11.90;99.90;;;;;;6138013;23;20010;-37
2024/01/03 12:23:19;;;;;;;12.32;3.50;;;12.00;99.90;;;;;;6137683;23;20492;-37
2024/01/03 12:25:45;;;;;;;14.70;3.70;;;12.00;99.90;;;;;;6137805;23;20005;-36
2024/01/03 12:28:17;;;;;;;12.95;3.22;;;12.00;99.90;;;;;;6137614;23;20028;-36
2024/01/03 12:30:43;;;;;;;15.98;3.40;;;12.00;99.90;;;;;;6138625;23;20036;-37
2024/01/03 12:33:15;;;;;;;13.65;2.85;;;12.00;99.90;;;;;;6136954;23;20037;-36
2024/01/03 12:35:41;;;;;;;9.50;2.70;;;11.90;99.90;;;;;;6138951;23;20036;-36
2024/01/03 12:38:07;;;;;;;10.02;3.00;;;11.90;99.90;;;;;;6137772;23;20706;-37
2024/01/03 12:40:33;;;;;;;10.93;3.03;;;11.80;99.90;;;;;;6138781;23;20012;-37
2024/01/03 12:42:58;;;;;;;9.82;2.30;;;11.80;99.90;;;;;;6138337;23;20005;-36